Time;durP1;ratioP1;P1;durP2;ratioP2;P2;SDS_P1;SDS_P2;PMS_P1;PMS_P2;Temp;Humidity;BMP_temperature;BMP_pressure;BME280_temperature;BME280_humidity;BME280_pressure;Samples;Min_cycle;Max_cycle;Signal;HPM_P1;HPM_P2
2022/05/10 00:00:00;;;;;;;0.9;0.9;;;;;;;17.9;100.0;101760;;;;
2022/05/10 00:01:00;;;;;;;0.9;0.9;;;;;;;17.9;100.0;101760;;;;
2022/05/10 00:02:00;;;;;;;0.9;0.9;;;;;;;17.9;100.0;101750;;;;
2022/05/10 00:03:01;;;;;;;0.9;0.9;;;;;;;17.9;100.0;101750;;;;
2022/05/10 00:04:01;;;;;;;1.0;1.0;;;;;;;17.9;100.0;101750;;;;
2022/05/10 00:05:00;;;;;;;1.0;1.0;;;;;;;17.9;100.0;101750;;;;
2022/05/10 00:06:00;;;;;;;1.0;1.0;;;;;;;17.8;100.0;101750;;;;
2022/05/10 00:07:00;;;;;;;1.0;1.0;;;;;;;17.8;100.0;101750;;;;
2022/05/10 00:08:00;;;;;;;1.0;1.0;;;;;;;17.8;100.0;101750;;;;
2022/05/10 00:09:00;;;;;;;1.0;1.0;;;;;;;17.8;100.0;101750;;;;
2022/05/10 00:10:00;;;;;;;1.0;1.0;;;;;;;17.8;100.0;101750;;;;
2022/05/10 00:11:00;;;;;;;1.0;1.0;;;;;;;17.8;100.0;101750;;;;
2022/05/10 00:12:00;;;;;;;1.0;1.0;;;;;;;17.8;100.0;101750;;;;
2022/05/10 00:13:00;;;;;;;1.0;1.0;;;;;;;17.8;100.0;101750;;;;
2022/05/10 00:14:00;;;;;;;1.0;1.0;;;;;;;17.7;100.0;101740;;;;
2022/05/10 00:15:00;;;;;;;1.0;1.0;;;;;;;17.7;100.0;101740;;;;
2022/05/10 00:16:00;;;;;;;1.0;1.0;;;;;;;17.7;100.0;101740;;;;
2022/05/10 00:17:00;;;;;;;1.0;1.0;;;;;;;17.7;100.0;101740;;;;
2022/05/10 00:18:00;;;;;;;1.0;1.0;;;;;;;17.7;100.0;101740;;;;
2022/05/10 00:19:00;;;;;;;1.0;1.0;;;;;;;17.7;100.0;101740;;;;
2022/05/10 00:20:00;;;;;;;1.0;1.0;;;;;;;17.6;100.0;101740;;;;
2022/05/10 00:21:00;;;;;;;1.0;1.0;;;;;;;17.6;100.0;101740;;;;
2022/05/10 00:22:00;;;;;;;1.0;1.0;;;;;;;17.6;100.0;101740;;;;
2022/05/10 00:23:00;;;;;;;1.0;1.0;;;;;;;17.6;100.0;101740;;;;
2022/05/10 00:24:00;;;;;;;0.7;0.7;;;;;;;17.6;100.0;101740;;;;
2022/05/10 00:25:00;;;;;;;0.7;0.7;;;;;;;17.6;100.0;101740;;;;
2022/05/10 00:26:00;;;;;;;0.7;0.7;;;;;;;17.6;100.0;101740;;;;
2022/05/10 00:27:00;;;;;;;0.7;0.7;;;;;;;17.6;100.0;101740;;;;
2022/05/10 00:28:00;;;;;;;0.7;0.7;;;;;;;17.5;100.0;101740;;;;
2022/05/10 00:29:01;;;;;;;0.7;0.7;;;;;;;17.5;100.0;101740;;;;
2022/05/10 00:30:00;;;;;;;0.7;0.7;;;;;;;17.5;100.0;101740;;;;
2022/05/10 00:31:00;;;;;;;0.7;0.7;;;;;;;17.5;100.0;101740;;;;
2022/05/10 00:32:00;;;;;;;0.7;0.7;;;;;;;17.5;100.0;101730;;;;
2022/05/10 00:33:00;;;;;;;0.7;0.7;;;;;;;17.5;100.0;101730;;;;
2022/05/10 00:34:02;;;;;;;0.7;0.7;;;;;;;17.5;100.0;101740;;;;
2022/05/10 00:35:00;;;;;;;0.7;0.7;;;;;;;17.5;100.0;101740;;;;
2022/05/10 00:36:00;;;;;;;0.7;0.7;;;;;;;17.5;100.0;101730;;;;
2022/05/10 00:37:00;;;;;;;0.7;0.7;;;;;;;17.5;100.0;101730;;;;
2022/05/10 00:38:02;;;;;;;0.7;0.7;;;;;;;17.5;100.0;101730;;;;
2022/05/10 00:39:00;;;;;;;0.7;0.7;;;;;;;17.5;100.0;101730;;;;
2022/05/10 00:40:00;;;;;;;0.7;0.7;;;;;;;17.4;100.0;101730;;;;
2022/05/10 00:41:06;;;;;;;0.7;0.7;;;;;;;17.4;100.0;101730;;;;
2022/05/10 00:42:06;;;;;;;0.7;0.7;;;;;;;17.4;100.0;101730;;;;
2022/05/10 00:43:03;;;;;;;0.7;0.7;;;;;;;17.4;100.0;101730;;;;
2022/05/10 00:44:09;;;;;;;0.5;0.5;;;;;;;17.4;100.0;101730;;;;
2022/05/10 00:45:03;;;;;;;0.5;0.5;;;;;;;17.4;100.0;101730;;;;
2022/05/10 00:46:00;;;;;;;0.5;0.5;;;;;;;17.4;100.0;101730;;;;
2022/05/10 00:47:04;;;;;;;0.5;0.5;;;;;;;17.4;100.0;101730;;;;
2022/05/10 00:48:04;;;;;;;0.5;0.5;;;;;;;17.3;100.0;101730;;;;
2022/05/10 00:49:07;;;;;;;0.5;0.5;;;;;;;17.3;100.0;101730;;;;
2022/05/10 00:50:04;;;;;;;0.5;0.5;;;;;;;17.3;100.0;101720;;;;
2022/05/10 00:51:05;;;;;;;0.5;0.5;;;;;;;17.3;100.0;101720;;;;
2022/05/10 00:52:05;;;;;;;0.5;0.5;;;;;;;17.2;100.0;101720;;;;
2022/05/10 00:53:06;;;;;;;0.5;0.5;;;;;;;17.2;100.0;101720;;;;
2022/05/10 00:54:00;;;;;;;0.5;0.5;;;;;;;17.2;100.0;101720;;;;
2022/05/10 00:55:05;;;;;;;0.5;0.5;;;;;;;17.2;100.0;101720;;;;
2022/05/10 00:56:04;;;;;;;0.5;0.5;;;;;;;17.2;100.0;101720;;;;
2022/05/10 00:57:06;;;;;;;0.5;0.5;;;;;;;17.2;100.0;101720;;;;
2022/05/10 00:58:03;;;;;;;0.5;0.5;;;;;;;17.2;100.0;101720;;;;
2022/05/10 00:59:08;;;;;;;0.5;0.5;;;;;;;17.2;100.0;101720;;;;
2022/05/10 01:00:04;;;;;;;0.5;0.5;;;;;;;17.2;100.0;101720;;;;
2022/05/10 01:01:01;;;;;;;0.5;0.5;;;;;;;17.2;100.0;101720;;;;
2022/05/10 01:02:05;;;;;;;0.5;0.5;;;;;;;17.1;100.0;101710;;;;
2022/05/10 01:03:03;;;;;;;0.5;0.5;;;;;;;17.1;100.0;101710;;;;
2022/05/10 01:04:11;;;;;;;0.8;0.8;;;;;;;17.1;100.0;101720;;;;
2022/05/10 01:05:05;;;;;;;0.8;0.8;;;;;;;17.1;100.0;101720;;;;
2022/05/10 01:06:01;;;;;;;0.8;0.8;;;;;;;17.1;100.0;101710;;;;
2022/05/10 01:07:10;;;;;;;0.8;0.8;;;;;;;17.1;100.0;101710;;;;
2022/05/10 01:08:03;;;;;;;0.8;0.8;;;;;;;17.1;100.0;101710;;;;
2022/05/10 01:09:11;;;;;;;0.8;0.8;;;;;;;17.1;100.0;101710;;;;
2022/05/10 01:10:02;;;;;;;0.8;0.8;;;;;;;17.1;100.0;101710;;;;
2022/05/10 01:11:05;;;;;;;0.8;0.8;;;;;;;17.1;100.0;101710;;;;
2022/05/10 01:12:10;;;;;;;0.8;0.8;;;;;;;17.0;100.0;101710;;;;
2022/05/10 01:13:05;;;;;;;0.8;0.8;;;;;;;17.0;100.0;101710;;;;
2022/05/10 01:14:04;;;;;;;0.8;0.8;;;;;;;17.0;100.0;101700;;;;
2022/05/10 01:15:00;;;;;;;0.8;0.8;;;;;;;17.0;100.0;101700;;;;
2022/05/10 01:16:00;;;;;;;0.8;0.8;;;;;;;17.0;100.0;101700;;;;
2022/05/10 01:17:00;;;;;;;0.8;0.8;;;;;;;17.0;100.0;101700;;;;
2022/05/10 01:18:00;;;;;;;0.8;0.8;;;;;;;16.9;100.0;101700;;;;
2022/05/10 01:19:00;;;;;;;0.8;0.8;;;;;;;16.9;100.0;101700;;;;
2022/05/10 01:20:00;;;;;;;0.8;0.8;;;;;;;16.9;100.0;101700;;;;
2022/05/10 01:21:08;;;;;;;0.8;0.8;;;;;;;16.9;100.0;101700;;;;
2022/05/10 01:22:07;;;;;;;0.8;0.8;;;;;;;16.9;100.0;101690;;;;
2022/05/10 01:23:10;;;;;;;0.8;0.8;;;;;;;16.9;100.0;101690;;;;
2022/05/10 01:24:10;;;;;;;0.5;0.5;;;;;;;16.9;100.0;101690;;;;
2022/05/10 01:25:07;;;;;;;0.5;0.5;;;;;;;16.9;100.0;101690;;;;
2022/05/10 01:26:04;;;;;;;0.5;0.5;;;;;;;16.8;100.0;101690;;;;
2022/05/10 01:27:03;;;;;;;0.5;0.5;;;;;;;16.8;100.0;101690;;;;
2022/05/10 01:28:03;;;;;;;0.5;0.5;;;;;;;16.8;100.0;101690;;;;
2022/05/10 01:29:04;;;;;;;0.5;0.5;;;;;;;16.8;100.0;101690;;;;
2022/05/10 01:30:00;;;;;;;0.5;0.5;;;;;;;16.8;100.0;101690;;;;
2022/05/10 01:31:04;;;;;;;0.5;0.5;;;;;;;16.8;100.0;101690;;;;
2022/05/10 01:34:03;;;;;;;0.5;0.5;;;;;;;16.7;100.0;101690;;;;
2022/05/10 01:35:02;;;;;;;0.5;0.5;;;;;;;16.7;100.0;101690;;;;
2022/05/10 01:36:07;;;;;;;0.5;0.5;;;;;;;16.7;100.0;101690;;;;
2022/05/10 01:37:04;;;;;;;0.5;0.5;;;;;;;16.7;100.0;101690;;;;
2022/05/10 01:38:03;;;;;;;0.5;0.5;;;;;;;16.6;100.0;101690;;;;
2022/05/10 01:39:05;;;;;;;0.5;0.5;;;;;;;16.6;100.0;101690;;;;
2022/05/10 01:40:05;;;;;;;0.5;0.5;;;;;;;16.6;100.0;101680;;;;
2022/05/10 01:41:06;;;;;;;0.5;0.5;;;;;;;16.6;100.0;101680;;;;
2022/05/10 01:42:07;;;;;;;0.5;0.5;;;;;;;16.6;100.0;101680;;;;
2022/05/10 01:43:05;;;;;;;0.5;0.5;;;;;;;16.6;100.0;101680;;;;
2022/05/10 01:44:04;;;;;;;0.6;0.6;;;;;;;16.6;100.0;101680;;;;
2022/05/10 01:45:02;;;;;;;0.6;0.6;;;;;;;16.6;100.0;101680;;;;
2022/05/10 01:46:03;;;;;;;0.6;0.6;;;;;;;16.6;100.0;101680;;;;
2022/05/10 01:47:10;;;;;;;0.6;0.6;;;;;;;16.6;100.0;101680;;;;
2022/05/10 01:48:01;;;;;;;0.6;0.6;;;;;;;16.6;100.0;101670;;;;
2022/05/10 01:49:07;;;;;;;0.6;0.6;;;;;;;16.6;100.0;101670;;;;
2022/05/10 01:50:02;;;;;;;0.6;0.6;;;;;;;16.5;100.0;101670;;;;
2022/05/10 01:51:04;;;;;;;0.6;0.6;;;;;;;16.5;100.0;101670;;;;
2022/05/10 01:52:06;;;;;;;0.6;0.6;;;;;;;16.5;100.0;101670;;;;
2022/05/10 01:53:10;;;;;;;0.6;0.6;;;;;;;16.5;100.0;101670;;;;
2022/05/10 01:54:00;;;;;;;0.6;0.6;;;;;;;16.5;100.0;101670;;;;
2022/05/10 01:55:01;;;;;;;0.6;0.6;;;;;;;16.5;100.0;101670;;;;
2022/05/10 01:56:03;;;;;;;0.6;0.6;;;;;;;16.4;100.0;101660;;;;
2022/05/10 01:57:00;;;;;;;0.6;0.6;;;;;;;16.4;100.0;101660;;;;
2022/05/10 01:58:02;;;;;;;0.6;0.6;;;;;;;16.4;100.0;101660;;;;
2022/05/10 01:59:00;;;;;;;0.6;0.6;;;;;;;16.4;100.0;101660;;;;
2022/05/10 02:00:05;;;;;;;0.6;0.6;;;;;;;16.4;100.0;101660;;;;
2022/05/10 02:01:03;;;;;;;0.6;0.6;;;;;;;16.4;100.0;101660;;;;
2022/05/10 02:02:01;;;;;;;0.6;0.6;;;;;;;16.4;100.0;101660;;;;
2022/05/10 02:03:05;;;;;;;0.6;0.6;;;;;;;16.4;100.0;101660;;;;
2022/05/10 02:04:06;;;;;;;0.5;0.5;;;;;;;16.4;100.0;101660;;;;
2022/05/10 02:05:03;;;;;;;0.5;0.5;;;;;;;16.4;100.0;101660;;;;
2022/05/10 02:06:10;;;;;;;0.5;0.5;;;;;;;16.3;100.0;101660;;;;
2022/05/10 02:07:04;;;;;;;0.5;0.5;;;;;;;16.3;100.0;101660;;;;
2022/05/10 02:08:05;;;;;;;0.5;0.5;;;;;;;16.3;100.0;101650;;;;
2022/05/10 02:09:10;;;;;;;0.5;0.5;;;;;;;16.3;100.0;101650;;;;
2022/05/10 02:10:05;;;;;;;0.5;0.5;;;;;;;16.3;100.0;101650;;;;
2022/05/10 02:11:03;;;;;;;0.5;0.5;;;;;;;16.3;100.0;101650;;;;
2022/05/10 02:12:02;;;;;;;0.5;0.5;;;;;;;16.3;100.0;101650;;;;
2022/05/10 02:13:04;;;;;;;0.5;0.5;;;;;;;16.3;100.0;101650;;;;
2022/05/10 02:14:04;;;;;;;0.5;0.5;;;;;;;16.3;100.0;101650;;;;
2022/05/10 02:15:06;;;;;;;0.5;0.5;;;;;;;16.3;100.0;101650;;;;
2022/05/10 02:16:03;;;;;;;0.5;0.5;;;;;;;16.2;100.0;101650;;;;
2022/05/10 02:17:10;;;;;;;0.5;0.5;;;;;;;16.2;100.0;101650;;;;
2022/05/10 02:18:06;;;;;;;0.5;0.5;;;;;;;16.2;100.0;101650;;;;
2022/05/10 02:19:03;;;;;;;0.5;0.5;;;;;;;16.2;100.0;101650;;;;
2022/05/10 02:20:00;;;;;;;0.5;0.5;;;;;;;16.2;100.0;101640;;;;
2022/05/10 02:21:03;;;;;;;0.5;0.5;;;;;;;16.2;100.0;101640;;;;
2022/05/10 02:22:04;;;;;;;0.5;0.5;;;;;;;16.2;100.0;101640;;;;
2022/05/10 02:23:07;;;;;;;0.5;0.5;;;;;;;16.2;100.0;101640;;;;
2022/05/10 02:24:00;;;;;;;0.8;0.8;;;;;;;16.2;100.0;101640;;;;
2022/05/10 02:25:10;;;;;;;0.8;0.8;;;;;;;16.2;100.0;101640;;;;
2022/05/10 02:26:02;;;;;;;0.8;0.8;;;;;;;16.2;100.0;101640;;;;
2022/05/10 02:27:03;;;;;;;0.8;0.8;;;;;;;16.2;100.0;101640;;;;
2022/05/10 02:28:10;;;;;;;0.8;0.8;;;;;;;16.2;100.0;101640;;;;
2022/05/10 02:29:04;;;;;;;0.8;0.8;;;;;;;16.2;100.0;101640;;;;
2022/05/10 02:30:05;;;;;;;0.8;0.8;;;;;;;16.2;100.0;101630;;;;
2022/05/10 02:31:04;;;;;;;0.8;0.8;;;;;;;16.2;100.0;101630;;;;
2022/05/10 02:33:09;;;;;;;0.8;0.8;;;;;;;16.2;100.0;101630;;;;
2022/05/10 02:34:00;;;;;;;0.8;0.8;;;;;;;16.1;100.0;101630;;;;
2022/05/10 02:35:02;;;;;;;0.8;0.8;;;;;;;16.1;100.0;101630;;;;
2022/05/10 02:36:00;;;;;;;0.8;0.8;;;;;;;16.2;100.0;101620;;;;
2022/05/10 02:37:00;;;;;;;0.8;0.8;;;;;;;16.2;100.0;101620;;;;
2022/05/10 02:38:00;;;;;;;0.8;0.8;;;;;;;16.2;100.0;101630;;;;
2022/05/10 02:39:00;;;;;;;0.8;0.8;;;;;;;16.2;100.0;101630;;;;
2022/05/10 02:40:00;;;;;;;0.8;0.8;;;;;;;16.1;100.0;101620;;;;
2022/05/10 02:41:02;;;;;;;0.8;0.8;;;;;;;16.1;100.0;101620;;;;
2022/05/10 02:42:00;;;;;;;0.8;0.8;;;;;;;16.1;100.0;101620;;;;
2022/05/10 02:43:00;;;;;;;0.8;0.8;;;;;;;16.1;100.0;101620;;;;
2022/05/10 02:44:01;;;;;;;1.8;1.7;;;;;;;16.2;100.0;101620;;;;
2022/05/10 02:45:00;;;;;;;1.8;1.7;;;;;;;16.2;100.0;101620;;;;
2022/05/10 02:46:00;;;;;;;1.8;1.7;;;;;;;16.1;100.0;101620;;;;
2022/05/10 02:47:00;;;;;;;1.8;1.7;;;;;;;16.1;100.0;101620;;;;
2022/05/10 02:48:00;;;;;;;1.8;1.7;;;;;;;16.1;100.0;101620;;;;
2022/05/10 02:49:00;;;;;;;1.8;1.7;;;;;;;16.1;100.0;101620;;;;
2022/05/10 02:50:01;;;;;;;1.8;1.7;;;;;;;16.1;100.0;101620;;;;
2022/05/10 02:51:00;;;;;;;1.8;1.7;;;;;;;16.1;100.0;101620;;;;
2022/05/10 02:52:00;;;;;;;1.8;1.7;;;;;;;16.1;100.0;101610;;;;
2022/05/10 02:53:00;;;;;;;1.8;1.7;;;;;;;16.1;100.0;101610;;;;
2022/05/10 02:54:00;;;;;;;1.8;1.7;;;;;;;16.1;100.0;101610;;;;
2022/05/10 02:55:02;;;;;;;1.8;1.7;;;;;;;16.1;100.0;101610;;;;
2022/05/10 02:56:03;;;;;;;1.8;1.7;;;;;;;16.0;100.0;101610;;;;
2022/05/10 02:57:01;;;;;;;1.8;1.7;;;;;;;16.0;100.0;101610;;;;
2022/05/10 02:58:04;;;;;;;1.8;1.7;;;;;;;16.0;100.0;101610;;;;
2022/05/10 02:59:04;;;;;;;1.8;1.7;;;;;;;16.0;100.0;101610;;;;
2022/05/10 03:00:02;;;;;;;1.8;1.7;;;;;;;15.8;100.0;101600;;;;
2022/05/10 03:01:06;;;;;;;1.8;1.7;;;;;;;15.8;100.0;101600;;;;
2022/05/10 03:02:08;;;;;;;1.8;1.7;;;;;;;16.0;100.0;101600;;;;
2022/05/10 03:03:04;;;;;;;1.8;1.7;;;;;;;16.0;100.0;101600;;;;
2022/05/10 03:04:01;;;;;;;0.8;0.8;;;;;;;16.0;100.0;101600;;;;
2022/05/10 03:05:00;;;;;;;0.8;0.8;;;;;;;16.0;100.0;101600;;;;
2022/05/10 03:06:00;;;;;;;0.8;0.8;;;;;;;16.0;100.0;101600;;;;
2022/05/10 03:07:00;;;;;;;0.8;0.8;;;;;;;16.0;100.0;101600;;;;
2022/05/10 03:08:04;;;;;;;0.8;0.8;;;;;;;16.0;100.0;101600;;;;
2022/05/10 03:09:00;;;;;;;0.8;0.8;;;;;;;16.0;100.0;101600;;;;
2022/05/10 03:10:00;;;;;;;0.8;0.8;;;;;;;16.0;100.0;101600;;;;
2022/05/10 03:11:00;;;;;;;0.8;0.8;;;;;;;16.0;100.0;101600;;;;
2022/05/10 03:12:02;;;;;;;0.8;0.8;;;;;;;16.0;100.0;101600;;;;
2022/05/10 03:13:00;;;;;;;0.8;0.8;;;;;;;16.0;100.0;101600;;;;
2022/05/10 03:14:00;;;;;;;0.8;0.8;;;;;;;16.0;100.0;101590;;;;
2022/05/10 03:15:00;;;;;;;0.8;0.8;;;;;;;16.0;100.0;101590;;;;
2022/05/10 03:16:01;;;;;;;0.8;0.8;;;;;;;16.1;100.0;101590;;;;
2022/05/10 03:17:00;;;;;;;0.8;0.8;;;;;;;16.1;100.0;101590;;;;
2022/05/10 03:18:00;;;;;;;0.8;0.8;;;;;;;16.0;100.0;101590;;;;
2022/05/10 03:19:00;;;;;;;0.8;0.8;;;;;;;16.0;100.0;101590;;;;
2022/05/10 03:20:00;;;;;;;0.8;0.8;;;;;;;16.0;100.0;101590;;;;
2022/05/10 03:21:00;;;;;;;0.8;0.8;;;;;;;16.0;100.0;101590;;;;
2022/05/10 03:22:00;;;;;;;0.8;0.8;;;;;;;16.1;100.0;101590;;;;
2022/05/10 03:23:00;;;;;;;0.8;0.8;;;;;;;16.1;100.0;101590;;;;
2022/05/10 03:24:00;;;;;;;3.6;2.4;;;;;;;16.1;100.0;101590;;;;
2022/05/10 03:25:01;;;;;;;3.6;2.4;;;;;;;16.1;100.0;101590;;;;
2022/05/10 03:26:00;;;;;;;3.6;2.4;;;;;;;16.1;100.0;101590;;;;
2022/05/10 03:27:02;;;;;;;3.6;2.4;;;;;;;16.1;100.0;101590;;;;
2022/05/10 03:28:00;;;;;;;3.6;2.4;;;;;;;16.0;100.0;101580;;;;
2022/05/10 03:29:00;;;;;;;3.6;2.4;;;;;;;16.0;100.0;101580;;;;
2022/05/10 03:30:00;;;;;;;3.6;2.4;;;;;;;16.0;100.0;101590;;;;
2022/05/10 03:31:00;;;;;;;3.6;2.4;;;;;;;16.0;100.0;101590;;;;
2022/05/10 03:32:00;;;;;;;3.6;2.4;;;;;;;16.1;100.0;101580;;;;
2022/05/10 03:33:00;;;;;;;3.6;2.4;;;;;;;16.1;100.0;101580;;;;
2022/05/10 03:35:00;;;;;;;3.6;2.4;;;;;;;16.1;100.0;101580;;;;
2022/05/10 03:36:00;;;;;;;3.6;2.4;;;;;;;16.1;100.0;101580;;;;
2022/05/10 03:37:00;;;;;;;3.6;2.4;;;;;;;16.1;100.0;101580;;;;
2022/05/10 03:38:01;;;;;;;3.6;2.4;;;;;;;16.1;100.0;101580;;;;
2022/05/10 03:39:00;;;;;;;3.6;2.4;;;;;;;16.1;100.0;101580;;;;
2022/05/10 03:40:00;;;;;;;3.6;2.4;;;;;;;16.0;100.0;101580;;;;
2022/05/10 03:41:00;;;;;;;3.6;2.4;;;;;;;16.0;100.0;101580;;;;
2022/05/10 03:42:00;;;;;;;3.6;2.4;;;;;;;16.0;100.0;101570;;;;
2022/05/10 03:43:01;;;;;;;3.6;2.4;;;;;;;16.0;100.0;101570;;;;
2022/05/10 03:44:00;;;;;;;1.3;1.3;;;;;;;16.0;100.0;101570;;;;
2022/05/10 03:45:00;;;;;;;1.3;1.3;;;;;;;16.0;100.0;101570;;;;
2022/05/10 03:46:05;;;;;;;1.3;1.3;;;;;;;16.0;100.0;101580;;;;
2022/05/10 03:47:00;;;;;;;1.3;1.3;;;;;;;16.0;100.0;101580;;;;
2022/05/10 03:48:00;;;;;;;1.3;1.3;;;;;;;16.0;100.0;101580;;;;
2022/05/10 03:49:00;;;;;;;1.3;1.3;;;;;;;16.0;100.0;101580;;;;
2022/05/10 03:50:00;;;;;;;1.3;1.3;;;;;;;16.0;100.0;101570;;;;
2022/05/10 03:51:00;;;;;;;1.3;1.3;;;;;;;16.0;100.0;101570;;;;
2022/05/10 03:52:00;;;;;;;1.3;1.3;;;;;;;16.0;100.0;101570;;;;
2022/05/10 03:53:00;;;;;;;1.3;1.3;;;;;;;16.0;100.0;101570;;;;
2022/05/10 03:54:00;;;;;;;1.3;1.3;;;;;;;16.0;100.0;101570;;;;
2022/05/10 03:55:00;;;;;;;1.3;1.3;;;;;;;16.0;100.0;101570;;;;
2022/05/10 03:56:00;;;;;;;1.3;1.3;;;;;;;16.0;100.0;101570;;;;
2022/05/10 03:57:00;;;;;;;1.3;1.3;;;;;;;16.0;100.0;101570;;;;
2022/05/10 03:58:02;;;;;;;1.3;1.3;;;;;;;16.0;100.0;101570;;;;
2022/05/10 03:59:00;;;;;;;1.3;1.3;;;;;;;16.0;100.0;101570;;;;
2022/05/10 04:00:00;;;;;;;1.3;1.3;;;;;;;16.0;100.0;101570;;;;
2022/05/10 04:01:00;;;;;;;1.3;1.3;;;;;;;16.0;100.0;101570;;;;
2022/05/10 04:02:03;;;;;;;1.3;1.3;;;;;;;16.0;100.0;101560;;;;
2022/05/10 04:03:00;;;;;;;1.3;1.2;;;;;;;16.0;100.0;101560;;;;
2022/05/10 04:04:01;;;;;;;1.3;1.2;;;;;;;16.0;100.0;101560;;;;
2022/05/10 04:05:00;;;;;;;1.3;1.2;;;;;;;16.0;100.0;101560;;;;
2022/05/10 04:06:00;;;;;;;1.3;1.2;;;;;;;16.0;100.0;101560;;;;
2022/05/10 04:07:00;;;;;;;1.3;1.2;;;;;;;16.0;100.0;101560;;;;
2022/05/10 04:08:00;;;;;;;1.3;1.2;;;;;;;15.9;100.0;101560;;;;
2022/05/10 04:09:00;;;;;;;1.3;1.2;;;;;;;15.9;100.0;101560;;;;
2022/05/10 04:10:00;;;;;;;1.3;1.2;;;;;;;15.9;100.0;101560;;;;
2022/05/10 04:11:04;;;;;;;1.3;1.2;;;;;;;15.9;100.0;101560;;;;
2022/05/10 04:12:00;;;;;;;1.3;1.2;;;;;;;16.0;100.0;101560;;;;
2022/05/10 04:13:00;;;;;;;1.3;1.2;;;;;;;16.0;100.0;101560;;;;
2022/05/10 04:14:00;;;;;;;1.3;1.2;;;;;;;15.9;100.0;101560;;;;
2022/05/10 04:15:00;;;;;;;1.3;1.2;;;;;;;15.9;100.0;101560;;;;
2022/05/10 04:16:00;;;;;;;1.3;1.2;;;;;;;15.9;100.0;101560;;;;
2022/05/10 04:17:00;;;;;;;1.3;1.2;;;;;;;15.9;100.0;101560;;;;
2022/05/10 04:18:00;;;;;;;1.3;1.2;;;;;;;15.9;100.0;101560;;;;
2022/05/10 04:19:00;;;;;;;1.3;1.2;;;;;;;15.9;100.0;101560;;;;
2022/05/10 04:20:00;;;;;;;1.3;1.2;;;;;;;15.9;100.0;101560;;;;
2022/05/10 04:21:00;;;;;;;1.3;1.2;;;;;;;15.9;100.0;101560;;;;
2022/05/10 04:22:00;;;;;;;1.3;1.2;;;;;;;15.9;100.0;101560;;;;
2022/05/10 04:23:00;;;;;;;0.4;0.4;;;;;;;15.9;100.0;101560;;;;
2022/05/10 04:24:00;;;;;;;0.4;0.4;;;;;;;15.9;100.0;101560;;;;
2022/05/10 04:25:00;;;;;;;0.4;0.4;;;;;;;15.9;100.0;101560;;;;
2022/05/10 04:26:02;;;;;;;0.4;0.4;;;;;;;16.0;100.0;101560;;;;
2022/05/10 04:27:00;;;;;;;0.4;0.4;;;;;;;16.0;100.0;101560;;;;
2022/05/10 04:28:00;;;;;;;0.4;0.4;;;;;;;15.9;100.0;101560;;;;
2022/05/10 04:29:00;;;;;;;0.4;0.4;;;;;;;15.9;100.0;101560;;;;
2022/05/10 04:30:00;;;;;;;0.4;0.4;;;;;;;16.0;100.0;101560;;;;
2022/05/10 04:31:00;;;;;;;0.4;0.4;;;;;;;16.0;100.0;101560;;;;
2022/05/10 04:32:00;;;;;;;0.4;0.4;;;;;;;16.0;100.0;101560;;;;
2022/05/10 04:33:00;;;;;;;0.4;0.4;;;;;;;16.0;100.0;101560;;;;
2022/05/10 04:34:00;;;;;;;0.4;0.4;;;;;;;15.9;100.0;101560;;;;
2022/05/10 04:35:00;;;;;;;0.4;0.4;;;;;;;15.9;100.0;101560;;;;
2022/05/10 04:36:00;;;;;;;0.4;0.4;;;;;;;16.0;100.0;101550;;;;
2022/05/10 04:37:00;;;;;;;0.4;0.4;;;;;;;16.0;100.0;101550;;;;
2022/05/10 04:38:00;;;;;;;0.4;0.4;;;;;;;15.9;100.0;101550;;;;
2022/05/10 04:39:00;;;;;;;0.4;0.4;;;;;;;15.9;100.0;101550;;;;
2022/05/10 04:42:00;;;;;;;0.4;0.4;;;;;;;15.9;100.0;101550;;;;
2022/05/10 04:43:00;;;;;;;0.4;0.4;;;;;;;15.9;100.0;101550;;;;
2022/05/10 04:44:01;;;;;;;0.4;0.4;;;;;;;16.0;100.0;101550;;;;
2022/05/10 04:45:00;;;;;;;0.4;0.4;;;;;;;16.0;100.0;101550;;;;
2022/05/10 04:46:00;;;;;;;0.4;0.4;;;;;;;16.1;100.0;101550;;;;
2022/05/10 04:47:00;;;;;;;0.4;0.4;;;;;;;16.1;100.0;101550;;;;
2022/05/10 04:48:00;;;;;;;0.4;0.4;;;;;;;16.1;100.0;101550;;;;
2022/05/10 04:49:00;;;;;;;0.4;0.4;;;;;;;16.1;100.0;101550;;;;
2022/05/10 04:50:01;;;;;;;0.4;0.4;;;;;;;16.1;100.0;101550;;;;
2022/05/10 04:51:00;;;;;;;0.4;0.4;;;;;;;16.1;100.0;101550;;;;
2022/05/10 04:52:00;;;;;;;0.4;0.4;;;;;;;16.1;100.0;101550;;;;
2022/05/10 04:53:00;;;;;;;0.4;0.4;;;;;;;16.1;100.0;101550;;;;
2022/05/10 04:54:00;;;;;;;0.4;0.4;;;;;;;16.2;100.0;101550;;;;
2022/05/10 04:55:00;;;;;;;0.4;0.4;;;;;;;16.2;100.0;101550;;;;
2022/05/10 04:56:00;;;;;;;0.4;0.4;;;;;;;16.2;100.0;101550;;;;
2022/05/10 04:57:01;;;;;;;0.4;0.4;;;;;;;16.2;100.0;101550;;;;
2022/05/10 04:58:00;;;;;;;0.4;0.4;;;;;;;16.3;100.0;101540;;;;
2022/05/10 04:59:00;;;;;;;0.4;0.4;;;;;;;16.3;100.0;101540;;;;
2022/05/10 05:00:00;;;;;;;0.4;0.4;;;;;;;16.2;100.0;101540;;;;
2022/05/10 05:01:02;;;;;;;0.4;0.4;;;;;;;16.2;100.0;101540;;;;
2022/05/10 05:02:00;;;;;;;0.4;0.4;;;;;;;16.2;100.0;101540;;;;
2022/05/10 05:03:00;;;;;;;1.4;1.3;;;;;;;16.2;100.0;101540;;;;
2022/05/10 05:04:01;;;;;;;1.4;1.3;;;;;;;16.3;100.0;101540;;;;
2022/05/10 05:05:00;;;;;;;1.4;1.3;;;;;;;16.3;100.0;101540;;;;
2022/05/10 05:06:00;;;;;;;1.4;1.3;;;;;;;16.3;100.0;101540;;;;
2022/05/10 05:07:00;;;;;;;1.4;1.3;;;;;;;16.3;100.0;101540;;;;
2022/05/10 05:08:00;;;;;;;1.4;1.3;;;;;;;16.4;100.0;101540;;;;
2022/05/10 05:09:00;;;;;;;1.4;1.3;;;;;;;16.4;100.0;101540;;;;
2022/05/10 05:10:02;;;;;;;1.4;1.3;;;;;;;16.3;100.0;101550;;;;
2022/05/10 05:11:01;;;;;;;1.4;1.3;;;;;;;16.3;100.0;101550;;;;
2022/05/10 05:12:00;;;;;;;1.4;1.3;;;;;;;16.3;100.0;101540;;;;
2022/05/10 05:13:00;;;;;;;1.4;1.3;;;;;;;16.3;100.0;101540;;;;
2022/05/10 05:14:00;;;;;;;1.4;1.3;;;;;;;16.4;100.0;101550;;;;
2022/05/10 05:15:01;;;;;;;1.4;1.3;;;;;;;16.4;100.0;101550;;;;
2022/05/10 05:16:00;;;;;;;1.4;1.3;;;;;;;16.3;100.0;101550;;;;
2022/05/10 05:17:00;;;;;;;1.4;1.3;;;;;;;16.3;100.0;101550;;;;
2022/05/10 05:18:03;;;;;;;1.4;1.3;;;;;;;16.5;100.0;101550;;;;
2022/05/10 05:19:00;;;;;;;1.4;1.3;;;;;;;16.5;100.0;101550;;;;
2022/05/10 05:20:00;;;;;;;1.4;1.3;;;;;;;16.5;100.0;101550;;;;
2022/05/10 05:21:00;;;;;;;1.4;1.3;;;;;;;16.5;100.0;101550;;;;
2022/05/10 05:22:01;;;;;;;1.4;1.3;;;;;;;16.5;100.0;101550;;;;
2022/05/10 05:23:01;;;;;;;1.0;1.0;;;;;;;16.5;100.0;101550;;;;
2022/05/10 05:24:00;;;;;;;1.0;1.0;;;;;;;16.5;100.0;101550;;;;
2022/05/10 05:25:00;;;;;;;1.0;1.0;;;;;;;16.5;100.0;101550;;;;
2022/05/10 05:26:00;;;;;;;1.0;1.0;;;;;;;16.6;100.0;101550;;;;
2022/05/10 05:27:00;;;;;;;1.0;1.0;;;;;;;16.6;100.0;101550;;;;
2022/05/10 05:28:00;;;;;;;1.0;1.0;;;;;;;16.6;100.0;101550;;;;
2022/05/10 05:29:00;;;;;;;1.0;1.0;;;;;;;16.6;100.0;101550;;;;
2022/05/10 05:30:03;;;;;;;1.0;1.0;;;;;;;16.7;100.0;101550;;;;
2022/05/10 05:31:01;;;;;;;1.0;1.0;;;;;;;16.7;100.0;101550;;;;
2022/05/10 05:32:02;;;;;;;1.0;1.0;;;;;;;16.7;100.0;101550;;;;
2022/05/10 05:33:00;;;;;;;1.0;1.0;;;;;;;16.7;100.0;101550;;;;
2022/05/10 05:34:00;;;;;;;1.0;1.0;;;;;;;16.7;100.0;101550;;;;
2022/05/10 05:35:00;;;;;;;1.0;1.0;;;;;;;16.7;100.0;101550;;;;
2022/05/10 05:36:00;;;;;;;1.0;1.0;;;;;;;16.8;100.0;101550;;;;
2022/05/10 05:38:00;;;;;;;1.0;1.0;;;;;;;16.8;100.0;101550;;;;
2022/05/10 05:39:00;;;;;;;1.0;1.0;;;;;;;16.8;100.0;101550;;;;
2022/05/10 05:40:01;;;;;;;1.0;1.0;;;;;;;16.8;100.0;101550;;;;
2022/05/10 05:41:01;;;;;;;1.0;1.0;;;;;;;16.8;100.0;101550;;;;
2022/05/10 05:42:00;;;;;;;1.0;1.0;;;;;;;16.9;100.0;101550;;;;
2022/05/10 05:43:00;;;;;;;1.6;1.5;;;;;;;16.9;100.0;101550;;;;
2022/05/10 05:44:00;;;;;;;1.6;1.5;;;;;;;17.0;100.0;101550;;;;
2022/05/10 05:45:00;;;;;;;1.6;1.5;;;;;;;17.0;100.0;101550;;;;
2022/05/10 05:46:01;;;;;;;1.6;1.5;;;;;;;16.9;100.0;101550;;;;
2022/05/10 05:47:00;;;;;;;1.6;1.5;;;;;;;16.9;100.0;101550;;;;
2022/05/10 05:48:00;;;;;;;1.6;1.5;;;;;;;17.0;100.0;101550;;;;
2022/05/10 05:49:01;;;;;;;1.6;1.5;;;;;;;17.0;100.0;101550;;;;
2022/05/10 05:50:00;;;;;;;1.6;1.5;;;;;;;17.1;100.0;101550;;;;
2022/05/10 05:51:00;;;;;;;1.6;1.5;;;;;;;17.1;100.0;101550;;;;
2022/05/10 05:52:00;;;;;;;1.6;1.5;;;;;;;17.2;100.0;101550;;;;
2022/05/10 05:53:00;;;;;;;1.6;1.5;;;;;;;17.2;100.0;101550;;;;
2022/05/10 05:54:00;;;;;;;1.6;1.5;;;;;;;17.2;100.0;101550;;;;
2022/05/10 05:55:00;;;;;;;1.6;1.5;;;;;;;17.2;100.0;101550;;;;
2022/05/10 05:56:01;;;;;;;1.6;1.5;;;;;;;17.2;100.0;101550;;;;
2022/05/10 05:57:02;;;;;;;1.6;1.5;;;;;;;17.2;100.0;101550;;;;
2022/05/10 05:58:00;;;;;;;1.6;1.5;;;;;;;17.2;100.0;101540;;;;
2022/05/10 05:59:00;;;;;;;1.6;1.5;;;;;;;17.2;100.0;101540;;;;
2022/05/10 06:00:00;;;;;;;1.6;1.5;;;;;;;17.3;100.0;101550;;;;
2022/05/10 06:01:00;;;;;;;1.6;1.5;;;;;;;17.3;100.0;101550;;;;
2022/05/10 06:02:00;;;;;;;1.6;1.5;;;;;;;17.4;100.0;101540;;;;
2022/05/10 06:03:00;;;;;;;1.1;1.1;;;;;;;17.4;100.0;101540;;;;
2022/05/10 06:04:00;;;;;;;1.1;1.1;;;;;;;17.5;100.0;101540;;;;
2022/05/10 06:05:00;;;;;;;1.1;1.1;;;;;;;17.5;100.0;101540;;;;
2022/05/10 06:06:00;;;;;;;1.1;1.1;;;;;;;17.5;100.0;101530;;;;
2022/05/10 06:07:00;;;;;;;1.1;1.1;;;;;;;17.5;100.0;101530;;;;
2022/05/10 06:08:01;;;;;;;1.1;1.1;;;;;;;17.6;100.0;101530;;;;
2022/05/10 06:09:00;;;;;;;1.1;1.1;;;;;;;17.6;100.0;101530;;;;
2022/05/10 06:10:00;;;;;;;1.1;1.1;;;;;;;17.6;100.0;101530;;;;
2022/05/10 06:11:00;;;;;;;1.1;1.1;;;;;;;17.6;100.0;101530;;;;
2022/05/10 06:12:00;;;;;;;1.1;1.1;;;;;;;17.7;100.0;101530;;;;
2022/05/10 06:13:01;;;;;;;1.1;1.1;;;;;;;17.7;100.0;101530;;;;
2022/05/10 06:14:01;;;;;;;1.1;1.1;;;;;;;17.8;100.0;101530;;;;
2022/05/10 06:15:03;;;;;;;1.1;1.1;;;;;;;17.8;100.0;101530;;;;
2022/05/10 06:16:03;;;;;;;1.1;1.1;;;;;;;17.9;100.0;101520;;;;
2022/05/10 06:17:00;;;;;;;1.1;1.1;;;;;;;17.9;100.0;101520;;;;
2022/05/10 06:18:03;;;;;;;1.1;1.1;;;;;;;18.0;100.0;101530;;;;
2022/05/10 06:19:00;;;;;;;1.1;1.1;;;;;;;18.0;100.0;101530;;;;
2022/05/10 06:20:00;;;;;;;1.1;1.1;;;;;;;18.0;100.0;101530;;;;
2022/05/10 06:21:00;;;;;;;1.1;1.1;;;;;;;18.0;100.0;101530;;;;
2022/05/10 06:22:03;;;;;;;1.1;1.1;;;;;;;18.1;100.0;101530;;;;
2022/05/10 06:23:01;;;;;;;1.0;0.5;;;;;;;18.1;100.0;101530;;;;
2022/05/10 06:24:00;;;;;;;1.0;0.5;;;;;;;18.2;100.0;101540;;;;
2022/05/10 06:25:00;;;;;;;1.0;0.5;;;;;;;18.2;100.0;101540;;;;
2022/05/10 06:26:00;;;;;;;1.0;0.5;;;;;;;18.4;100.0;101530;;;;
2022/05/10 06:27:00;;;;;;;1.0;0.5;;;;;;;18.4;100.0;101530;;;;
2022/05/10 06:28:00;;;;;;;1.0;0.5;;;;;;;18.3;100.0;101530;;;;
2022/05/10 06:29:00;;;;;;;1.0;0.5;;;;;;;18.3;100.0;101530;;;;